sensor_id;sensor_type;location;lat;lon;timestamp;P1;durP1;ratioP1;P2;durP2;ratioP2
1693;SDS011;71975;47.068;15.408;2024-03-06T18:28:02;16.17;;;13.23;;
1693;SDS011;71975;47.068;15.408;2024-03-06T18:33:05;19.90;;;16.50;;
1693;SDS011;71975;47.068;15.408;2024-03-06T18:38:08;14.60;;;13.13;;
1693;SDS011;71975;47.068;15.408;2024-03-06T18:43:13;19.13;;;13.93;;
1693;SDS011;71975;47.068;15.408;2024-03-06T18:48:16;15.63;;;13.00;;
1693;SDS011;71975;47.068;15.408;2024-03-06T18:53:19;15.23;;;13.70;;
1693;SDS011;71975;47.068;15.408;2024-03-06T18:58:23;16.17;;;14.57;;
1693;SDS011;71975;47.068;15.408;2024-03-06T19:03:26;14.70;;;13.07;;
1693;SDS011;71975;47.068;15.408;2024-03-06T19:08:29;13.53;;;11.07;;
1693;SDS011;71975;47.068;15.408;2024-03-06T19:13:34;11.00;;;8.80;;
1693;SDS011;71975;47.068;15.408;2024-03-06T19:18:37;9.10;;;8.10;;
1693;SDS011;71975;47.068;15.408;2024-03-06T19:23:40;9.10;;;7.53;;
1693;SDS011;71975;47.068;15.408;2024-03-06T19:28:45;15.10;;;8.30;;
1693;SDS011;71975;47.068;15.408;2024-03-06T19:33:48;9.70;;;7.50;;
1693;SDS011;71975;47.068;15.408;2024-03-06T19:38:51;12.87;;;8.40;;
1693;SDS011;71975;47.068;15.408;2024-03-06T19:43:55;16.20;;;9.37;;
1693;SDS011;71975;47.068;15.408;2024-03-06T19:48:59;8.30;;;7.03;;
1693;SDS011;71975;47.068;15.408;2024-03-06T19:54:02;9.03;;;7.03;;
1693;SDS011;71975;47.068;15.408;2024-03-06T19:59:08;9.37;;;6.47;;
1693;SDS011;71975;47.068;15.408;2024-03-06T20:04:11;14.83;;;10.07;;
1693;SDS011;71975;47.068;15.408;2024-03-06T20:09:14;11.27;;;8.57;;
1693;SDS011;71975;47.068;15.408;2024-03-06T20:14:18;10.67;;;8.80;;
1693;SDS011;71975;47.068;15.408;2024-03-06T20:19:21;9.10;;;7.40;;
1693;SDS011;71975;47.068;15.408;2024-03-06T20:24:24;10.70;;;7.30;;
1693;SDS011;71975;47.068;15.408;2024-03-06T20:29:29;11.20;;;9.60;;
1693;SDS011;71975;47.068;15.408;2024-03-06T20:34:32;10.70;;;8.30;;
1693;SDS011;71975;47.068;15.408;2024-03-06T20:39:35;10.97;;;8.37;;
1693;SDS011;71975;47.068;15.408;2024-03-06T20:44:40;9.37;;;7.40;;
1693;SDS011;71975;47.068;15.408;2024-03-06T20:49:43;10.33;;;8.80;;
1693;SDS011;71975;47.068;15.408;2024-03-06T20:54:46;9.03;;;7.10;;
1693;SDS011;71975;47.068;15.408;2024-03-06T20:59:50;9.07;;;6.90;;
1693;SDS011;71975;47.068;15.408;2024-03-06T21:04:54;11.80;;;8.90;;
1693;SDS011;71975;47.068;15.408;2024-03-06T21:09:57;10.47;;;8.33;;
1693;SDS011;71975;47.068;15.408;2024-03-06T21:15:04;10.23;;;8.33;;
1693;SDS011;71975;47.068;15.408;2024-03-06T21:20:09;10.20;;;8.33;;
1693;SDS011;71975;47.068;15.408;2024-03-06T21:25:13;8.30;;;6.67;;
1693;SDS011;71975;47.068;15.408;2024-03-06T21:30:18;9.93;;;8.93;;
1693;SDS011;71975;47.068;15.408;2024-03-06T21:35:21;7.93;;;6.03;;
1693;SDS011;71975;47.068;15.408;2024-03-06T21:40:26;9.40;;;6.83;;
1693;SDS011;71975;47.068;15.408;2024-03-06T21:45:32;10.17;;;7.37;;
1693;SDS011;71975;47.068;15.408;2024-03-06T21:50:35;8.77;;;7.17;;
1693;SDS011;71975;47.068;15.408;2024-03-06T21:55:38;9.30;;;6.80;;
1693;SDS011;71975;47.068;15.408;2024-03-06T22:00:43;8.10;;;7.20;;
1693;SDS011;71975;47.068;15.408;2024-03-06T22:05:46;7.90;;;6.50;;
1693;SDS011;71975;47.068;15.408;2024-03-06T22:10:49;7.30;;;6.60;;
1693;SDS011;71975;47.068;15.408;2024-03-06T22:15:53;11.00;;;7.73;;
1693;SDS011;71975;47.068;15.408;2024-03-06T22:20:57;10.07;;;7.60;;
1693;SDS011;71975;47.068;15.408;2024-03-06T22:26:00;9.73;;;7.40;;
1693;SDS011;71975;47.068;15.408;2024-03-06T22:31:04;8.70;;;6.33;;
1693;SDS011;71975;47.068;15.408;2024-03-06T22:36:14;8.50;;;6.50;;
1693;SDS011;71975;47.068;15.408;2024-03-06T22:41:17;8.20;;;7.00;;
1693;SDS011;71975;47.068;15.408;2024-03-06T22:46:22;9.67;;;7.70;;
1693;SDS011;71975;47.068;15.408;2024-03-06T22:51:25;9.13;;;7.70;;
1693;SDS011;71975;47.068;15.408;2024-03-06T22:56:28;8.37;;;6.83;;
1693;SDS011;71975;47.068;15.408;2024-03-06T23:01:35;8.90;;;6.60;;
1693;SDS011;71975;47.068;15.408;2024-03-06T23:06:38;9.57;;;6.90;;
1693;SDS011;71975;47.068;15.408;2024-03-06T23:11:41;7.90;;;6.60;;
1693;SDS011;71975;47.068;15.408;2024-03-06T23:16:45;10.43;;;7.17;;
1693;SDS011;71975;47.068;15.408;2024-03-06T23:21:53;10.47;;;8.40;;
1693;SDS011;71975;47.068;15.408;2024-03-06T23:26:58;10.27;;;8.60;;
1693;SDS011;71975;47.068;15.408;2024-03-06T23:32:02;10.50;;;8.00;;
1693;SDS011;71975;47.068;15.408;2024-03-06T23:37:06;10.77;;;8.27;;
1693;SDS011;71975;47.068;15.408;2024-03-06T23:42:09;10.27;;;8.90;;
1693;SDS011;71975;47.068;15.408;2024-03-06T23:47:13;10.30;;;8.17;;
1693;SDS011;71975;47.068;15.408;2024-03-06T23:52:16;8.77;;;7.87;;
1693;SDS011;71975;47.068;15.408;2024-03-06T23:57:20;12.33;;;8.20;;
